Hitchin, United Kingdom
Current Conditions -  °F | °C
As of 3:50 PM on Saturday 25 Oct 2014 (Local Time) from EGGW Reporting Station
Scattered Clouds Scattered Clouds  
Wind Chill: 55°   Ceiling: Unl
Heat Index: 55°   Visibility: 6mi
Dew Point: 46°   Wind: 13mph
Humidity: 72%   Direction: 220°SW
Pressure: 30.03"   Gusts: NA
Location:  52.04°N, 0.27°W
Report Text: EGGW 251450Z 22011KT 9999 SCT029 13/08 Q1017
Loading
Personal Weather Stations






























Interactive Weather Map New forecast layout! Learn more

10-Day Weather Forecast

Advertisements
Track Severe Weather on mobile